Columbus, Ohio
Traffic Map
Current Weather Conditions
Columbus, Ohio
Overcast
Overcast
12°
Feels Like: 12°
Wind Chill: 12° Ceiling: 2300
Heat Index: 12° Visibility: 10mi
Dew Point: Wind: 10mph
Humidity: 83% Direction: 20° (NNE)
Pressure: 29.42in Gusts: 0mph
Raw Report DataKCMH 231051Z 02009KT 10SM SCT018 BKN023 OVC038 12/09 A2942 RMK AO2 RAE41 SLP962 P0001 T01170089 $
Traffic Incident Summary
Active as of:
Severity:
Category:
InformationThere was an issue retrieving the traffic information for this location. Please try a different location or try again shortly.
Advertisements
Track Severe Weather on mobile